sensor_id;sensor_type;location;lat;lon;timestamp;P1;durP1;ratioP1;P2;durP2;ratioP2
4434;SDS011;46552;52.150;8.428;2023-04-20T00:02:16;8.30;;;3.93;;
4434;SDS011;46552;52.150;8.428;2023-04-20T00:04:43;9.30;;;4.47;;
4434;SDS011;46552;52.150;8.428;2023-04-20T00:07:10;8.90;;;3.57;;
4434;SDS011;46552;52.150;8.428;2023-04-20T00:09:42;8.77;;;3.93;;
4434;SDS011;46552;52.150;8.428;2023-04-20T00:12:09;9.10;;;4.03;;
4434;SDS011;46552;52.150;8.428;2023-04-20T00:14:36;14.17;;;4.40;;
4434;SDS011;46552;52.150;8.428;2023-04-20T00:17:03;8.93;;;4.23;;
4434;SDS011;46552;52.150;8.428;2023-04-20T00:19:31;11.47;;;4.00;;
4434;SDS011;46552;52.150;8.428;2023-04-20T00:21:58;9.90;;;4.40;;
4434;SDS011;46552;52.150;8.428;2023-04-20T00:24:25;8.53;;;4.10;;
4434;SDS011;46552;52.150;8.428;2023-04-20T00:26:55;8.17;;;4.70;;
4434;SDS011;46552;52.150;8.428;2023-04-20T00:29:22;9.30;;;4.50;;
4434;SDS011;46552;52.150;8.428;2023-04-20T00:31:49;8.53;;;4.80;;
4434;SDS011;46552;52.150;8.428;2023-04-20T00:34:16;11.47;;;5.40;;
4434;SDS011;46552;52.150;8.428;2023-04-20T00:36:43;7.23;;;4.33;;
4434;SDS011;46552;52.150;8.428;2023-04-20T00:39:10;11.90;;;5.77;;
4434;SDS011;46552;52.150;8.428;2023-04-20T00:41:37;9.53;;;5.13;;
4434;SDS011;46552;52.150;8.428;2023-04-20T00:44:07;10.77;;;5.67;;
4434;SDS011;46552;52.150;8.428;2023-04-20T00:46:37;11.33;;;4.83;;
4434;SDS011;46552;52.150;8.428;2023-04-20T00:49:05;7.77;;;4.53;;
4434;SDS011;46552;52.150;8.428;2023-04-20T00:51:33;13.43;;;5.30;;
4434;SDS011;46552;52.150;8.428;2023-04-20T00:54:01;11.93;;;5.37;;
4434;SDS011;46552;52.150;8.428;2023-04-20T00:56:28;10.30;;;5.23;;
4434;SDS011;46552;52.150;8.428;2023-04-20T00:58:56;9.27;;;6.30;;
4434;SDS011;46552;52.150;8.428;2023-04-20T01:01:26;12.67;;;6.10;;
4434;SDS011;46552;52.150;8.428;2023-04-20T01:03:55;19.33;;;6.30;;
4434;SDS011;46552;52.150;8.428;2023-04-20T01:06:22;9.80;;;4.93;;
4434;SDS011;46552;52.150;8.428;2023-04-20T01:08:50;15.17;;;4.90;;
4434;SDS011;46552;52.150;8.428;2023-04-20T01:11:17;9.40;;;4.63;;
4434;SDS011;46552;52.150;8.428;2023-04-20T01:13:45;10.73;;;5.50;;
4434;SDS011;46552;52.150;8.428;2023-04-20T01:16:13;14.63;;;5.20;;
4434;SDS011;46552;52.150;8.428;2023-04-20T01:18:43;9.27;;;4.77;;
4434;SDS011;46552;52.150;8.428;2023-04-20T01:21:12;9.50;;;4.73;;
4434;SDS011;46552;52.150;8.428;2023-04-20T01:23:41;13.17;;;5.60;;
4434;SDS011;46552;52.150;8.428;2023-04-20T01:26:09;9.17;;;4.30;;
4434;SDS011;46552;52.150;8.428;2023-04-20T01:28:38;13.13;;;4.87;;
4434;SDS011;46552;52.150;8.428;2023-04-20T01:31:06;10.73;;;4.73;;
4434;SDS011;46552;52.150;8.428;2023-04-20T01:33:35;7.17;;;5.10;;
4434;SDS011;46552;52.150;8.428;2023-04-20T01:36:02;12.93;;;5.73;;
4434;SDS011;46552;52.150;8.428;2023-04-20T01:38:31;15.83;;;4.70;;
4434;SDS011;46552;52.150;8.428;2023-04-20T01:41:01;19.00;;;5.43;;
4434;SDS011;46552;52.150;8.428;2023-04-20T01:43:29;14.73;;;5.60;;
4434;SDS011;46552;52.150;8.428;2023-04-20T01:45:57;7.27;;;4.50;;
4434;SDS011;46552;52.150;8.428;2023-04-20T01:48:25;7.77;;;5.27;;
4434;SDS011;46552;52.150;8.428;2023-04-20T01:50:53;13.67;;;4.80;;
4434;SDS011;46552;52.150;8.428;2023-04-20T01:53:20;9.60;;;6.20;;
4434;SDS011;46552;52.150;8.428;2023-04-20T01:55:49;11.30;;;4.03;;
4434;SDS011;46552;52.150;8.428;2023-04-20T01:58:18;8.50;;;4.97;;
4434;SDS011;46552;52.150;8.428;2023-04-20T02:00:45;10.27;;;5.70;;
4434;SDS011;46552;52.150;8.428;2023-04-20T02:03:13;7.80;;;4.30;;
4434;SDS011;46552;52.150;8.428;2023-04-20T02:05:40;14.67;;;4.93;;
4434;SDS011;46552;52.150;8.428;2023-04-20T02:08:07;9.17;;;4.90;;
4434;SDS011;46552;52.150;8.428;2023-04-20T02:10:35;10.73;;;5.43;;
4434;SDS011;46552;52.150;8.428;2023-04-20T02:13:02;14.27;;;5.67;;
4434;SDS011;46552;52.150;8.428;2023-04-20T02:15:30;8.70;;;5.30;;
4434;SDS011;46552;52.150;8.428;2023-04-20T02:17:59;8.67;;;4.10;;
4434;SDS011;46552;52.150;8.428;2023-04-20T02:20:28;9.67;;;4.60;;
4434;SDS011;46552;52.150;8.428;2023-04-20T02:22:56;11.77;;;4.93;;
4434;SDS011;46552;52.150;8.428;2023-04-20T02:25:24;7.80;;;4.50;;
4434;SDS011;46552;52.150;8.428;2023-04-20T02:27:52;13.53;;;4.60;;
4434;SDS011;46552;52.150;8.428;2023-04-20T02:30:20;10.90;;;4.30;;
4434;SDS011;46552;52.150;8.428;2023-04-20T02:32:49;6.57;;;3.57;;
4434;SDS011;46552;52.150;8.428;2023-04-20T02:35:16;6.83;;;4.10;;
4434;SDS011;46552;52.150;8.428;2023-04-20T02:37:45;8.67;;;4.67;;
4434;SDS011;46552;52.150;8.428;2023-04-20T02:40:13;7.80;;;4.20;;
4434;SDS011;46552;52.150;8.428;2023-04-20T02:42:40;7.20;;;3.90;;
4434;SDS011;46552;52.150;8.428;2023-04-20T02:45:08;11.60;;;4.13;;
4434;SDS011;46552;52.150;8.428;2023-04-20T02:47:37;8.37;;;4.33;;
4434;SDS011;46552;52.150;8.428;2023-04-20T02:50:07;7.97;;;3.90;;
4434;SDS011;46552;52.150;8.428;2023-04-20T02:52:35;11.10;;;4.60;;
4434;SDS011;46552;52.150;8.428;2023-04-20T02:55:04;6.90;;;4.40;;
4434;SDS011;46552;52.150;8.428;2023-04-20T02:57:32;9.10;;;4.10;;
4434;SDS011;46552;52.150;8.428;2023-04-20T02:59:59;13.30;;;6.23;;
4434;SDS011;46552;52.150;8.428;2023-04-20T03:02:27;7.30;;;3.90;;
4434;SDS011;46552;52.150;8.428;2023-04-20T03:04:54;12.63;;;4.53;;
4434;SDS011;46552;52.150;8.428;2023-04-20T03:07:22;11.00;;;4.83;;
4434;SDS011;46552;52.150;8.428;2023-04-20T03:09:50;8.33;;;3.50;;
4434;SDS011;46552;52.150;8.428;2023-04-20T03:12:17;6.43;;;4.47;;
4434;SDS011;46552;52.150;8.428;2023-04-20T03:14:44;13.90;;;4.97;;
4434;SDS011;46552;52.150;8.428;2023-04-20T03:17:11;11.17;;;4.87;;
4434;SDS011;46552;52.150;8.428;2023-04-20T03:19:38;10.20;;;4.63;;
4434;SDS011;46552;52.150;8.428;2023-04-20T03:22:06;9.90;;;4.87;;
4434;SDS011;46552;52.150;8.428;2023-04-20T03:24:35;9.67;;;5.00;;
4434;SDS011;46552;52.150;8.428;2023-04-20T03:27:02;9.57;;;5.10;;
4434;SDS011;46552;52.150;8.428;2023-04-20T03:29:29;28.07;;;4.53;;
4434;SDS011;46552;52.150;8.428;2023-04-20T03:31:56;12.00;;;5.07;;
4434;SDS011;46552;52.150;8.428;2023-04-20T03:34:23;11.30;;;5.17;;
4434;SDS011;46552;52.150;8.428;2023-04-20T03:36:51;7.20;;;4.50;;
4434;SDS011;46552;52.150;8.428;2023-04-20T03:39:19;7.40;;;4.30;;
4434;SDS011;46552;52.150;8.428;2023-04-20T03:41:49;7.33;;;4.90;;
4434;SDS011;46552;52.150;8.428;2023-04-20T03:44:17;12.43;;;4.50;;
4434;SDS011;46552;52.150;8.428;2023-04-20T03:46:44;7.33;;;4.50;;
4434;SDS011;46552;52.150;8.428;2023-04-20T03:49:11;12.77;;;5.70;;
4434;SDS011;46552;52.150;8.428;2023-04-20T03:51:39;10.53;;;4.67;;
4434;SDS011;46552;52.150;8.428;2023-04-20T03:54:06;11.60;;;5.83;;
4434;SDS011;46552;52.150;8.428;2023-04-20T03:56:33;18.70;;;5.70;;
4434;SDS011;46552;52.150;8.428;2023-04-20T03:59:03;6.90;;;5.00;;
4434;SDS011;46552;52.150;8.428;2023-04-20T04:01:30;6.93;;;4.10;;
4434;SDS011;46552;52.150;8.428;2023-04-20T04:03:57;12.30;;;4.47;;
4434;SDS011;46552;52.150;8.428;2023-04-20T04:06:24;12.20;;;4.97;;
4434;SDS011;46552;52.150;8.428;2023-04-20T04:08:52;10.13;;;4.43;;
4434;SDS011;46552;52.150;8.428;2023-04-20T04:11:19;9.93;;;4.90;;
4434;SDS011;46552;52.150;8.428;2023-04-20T04:13:46;11.60;;;4.63;;
4434;SDS011;46552;52.150;8.428;2023-04-20T04:16:22;8.97;;;5.13;;
4434;SDS011;46552;52.150;8.428;2023-04-20T04:18:49;9.80;;;5.00;;
4434;SDS011;46552;52.150;8.428;2023-04-20T04:21:16;15.70;;;5.10;;
4434;SDS011;46552;52.150;8.428;2023-04-20T04:23:43;8.80;;;5.10;;
4434;SDS011;46552;52.150;8.428;2023-04-20T04:26:12;15.30;;;4.83;;
4434;SDS011;46552;52.150;8.428;2023-04-20T04:28:39;11.70;;;5.70;;
4434;SDS011;46552;52.150;8.428;2023-04-20T04:31:06;14.20;;;5.20;;
4434;SDS011;46552;52.150;8.428;2023-04-20T04:33:37;9.20;;;5.30;;
4434;SDS011;46552;52.150;8.428;2023-04-20T04:36:05;12.63;;;5.13;;
4434;SDS011;46552;52.150;8.428;2023-04-20T04:38:33;10.10;;;4.63;;
4434;SDS011;46552;52.150;8.428;2023-04-20T04:41:00;12.23;;;5.83;;
4434;SDS011;46552;52.150;8.428;2023-04-20T04:43:28;12.80;;;5.03;;
4434;SDS011;46552;52.150;8.428;2023-04-20T04:45:55;19.40;;;6.90;;
4434;SDS011;46552;52.150;8.428;2023-04-20T04:48:22;18.57;;;6.80;;
4434;SDS011;46552;52.150;8.428;2023-04-20T04:50:51;11.37;;;5.87;;
4434;SDS011;46552;52.150;8.428;2023-04-20T04:53:18;20.13;;;6.90;;
4434;SDS011;46552;52.150;8.428;2023-04-20T04:55:46;13.83;;;6.57;;
4434;SDS011;46552;52.150;8.428;2023-04-20T04:58:14;13.80;;;6.27;;
4434;SDS011;46552;52.150;8.428;2023-04-20T05:00:41;12.10;;;6.43;;
4434;SDS011;46552;52.150;8.428;2023-04-20T05:03:08;11.50;;;5.80;;
4434;SDS011;46552;52.150;8.428;2023-04-20T05:05:35;12.10;;;5.73;;
4434;SDS011;46552;52.150;8.428;2023-04-20T05:08:03;13.37;;;7.00;;
4434;SDS011;46552;52.150;8.428;2023-04-20T05:10:31;10.63;;;5.93;;
4434;SDS011;46552;52.150;8.428;2023-04-20T05:12:58;9.93;;;5.10;;
4434;SDS011;46552;52.150;8.428;2023-04-20T05:15:26;13.57;;;6.70;;
4434;SDS011;46552;52.150;8.428;2023-04-20T05:17:53;10.43;;;6.30;;
4434;SDS011;46552;52.150;8.428;2023-04-20T05:20:21;17.90;;;6.50;;
4434;SDS011;46552;52.150;8.428;2023-04-20T05:22:49;16.77;;;5.77;;
4434;SDS011;46552;52.150;8.428;2023-04-20T05:25:18;14.17;;;6.43;;
4434;SDS011;46552;52.150;8.428;2023-04-20T05:27:45;11.00;;;6.23;;
4434;SDS011;46552;52.150;8.428;2023-04-20T05:30:12;12.57;;;6.70;;
4434;SDS011;46552;52.150;8.428;2023-04-20T05:32:39;16.70;;;5.37;;
4434;SDS011;46552;52.150;8.428;2023-04-20T05:35:07;14.33;;;6.30;;
4434;SDS011;46552;52.150;8.428;2023-04-20T05:37:34;15.10;;;6.50;;
4434;SDS011;46552;52.150;8.428;2023-04-20T05:40:01;15.10;;;5.77;;
4434;SDS011;46552;52.150;8.428;2023-04-20T05:42:30;14.20;;;8.13;;
4434;SDS011;46552;52.150;8.428;2023-04-20T05:44:57;17.60;;;8.60;;
4434;SDS011;46552;52.150;8.428;2023-04-20T05:47:24;20.40;;;6.77;;
4434;SDS011;46552;52.150;8.428;2023-04-20T05:49:52;11.00;;;6.60;;
4434;SDS011;46552;52.150;8.428;2023-04-20T05:52:19;13.30;;;5.80;;
4434;SDS011;46552;52.150;8.428;2023-04-20T05:54:47;12.67;;;7.07;;
4434;SDS011;46552;52.150;8.428;2023-04-20T05:57:15;19.50;;;7.10;;
4434;SDS011;46552;52.150;8.428;2023-04-20T05:59:44;17.00;;;7.93;;
4434;SDS011;46552;52.150;8.428;2023-04-20T06:02:12;15.50;;;7.33;;
4434;SDS011;46552;52.150;8.428;2023-04-20T06:04:39;20.93;;;7.53;;
4434;SDS011;46552;52.150;8.428;2023-04-20T06:07:08;21.53;;;7.90;;
4434;SDS011;46552;52.150;8.428;2023-04-20T06:09:35;10.07;;;6.13;;
4434;SDS011;46552;52.150;8.428;2023-04-20T06:12:02;10.07;;;6.43;;
4434;SDS011;46552;52.150;8.428;2023-04-20T06:14:30;16.93;;;7.87;;
4434;SDS011;46552;52.150;8.428;2023-04-20T06:16:59;14.90;;;6.57;;
4434;SDS011;46552;52.150;8.428;2023-04-20T06:19:26;12.60;;;7.33;;
4434;SDS011;46552;52.150;8.428;2023-04-20T06:21:53;11.07;;;7.00;;
4434;SDS011;46552;52.150;8.428;2023-04-20T06:24:20;13.73;;;6.53;;
4434;SDS011;46552;52.150;8.428;2023-04-20T06:26:48;19.33;;;6.43;;
4434;SDS011;46552;52.150;8.428;2023-04-20T06:29:15;13.33;;;8.03;;
4434;SDS011;46552;52.150;8.428;2023-04-20T06:31:42;14.33;;;7.23;;
4434;SDS011;46552;52.150;8.428;2023-04-20T06:34:11;14.87;;;8.13;;
4434;SDS011;46552;52.150;8.428;2023-04-20T06:36:41;20.27;;;8.17;;
4434;SDS011;46552;52.150;8.428;2023-04-20T06:39:08;17.00;;;7.67;;
4434;SDS011;46552;52.150;8.428;2023-04-20T06:41:36;17.17;;;7.47;;
4434;SDS011;46552;52.150;8.428;2023-04-20T06:44:03;20.00;;;7.10;;
4434;SDS011;46552;52.150;8.428;2023-04-20T06:46:31;13.70;;;7.43;;
4434;SDS011;46552;52.150;8.428;2023-04-20T06:48:58;14.47;;;7.77;;
4434;SDS011;46552;52.150;8.428;2023-04-20T06:51:28;25.70;;;7.83;;
4434;SDS011;46552;52.150;8.428;2023-04-20T06:53:56;17.13;;;7.40;;
4434;SDS011;46552;52.150;8.428;2023-04-20T06:56:23;14.77;;;8.03;;
4434;SDS011;46552;52.150;8.428;2023-04-20T06:58:51;13.53;;;6.57;;
4434;SDS011;46552;52.150;8.428;2023-04-20T07:01:19;15.07;;;7.90;;
4434;SDS011;46552;52.150;8.428;2023-04-20T07:03:46;12.13;;;7.10;;
4434;SDS011;46552;52.150;8.428;2023-04-20T07:06:13;13.37;;;7.50;;
4434;SDS011;46552;52.150;8.428;2023-04-20T07:08:42;15.27;;;7.73;;
4434;SDS011;46552;52.150;8.428;2023-04-20T07:11:09;12.30;;;7.30;;
4434;SDS011;46552;52.150;8.428;2023-04-20T07:13:36;13.90;;;7.50;;
4434;SDS011;46552;52.150;8.428;2023-04-20T07:16:04;19.23;;;8.10;;
4434;SDS011;46552;52.150;8.428;2023-04-20T07:18:31;12.17;;;7.00;;
4434;SDS011;46552;52.150;8.428;2023-04-20T07:20:59;20.80;;;8.80;;
4434;SDS011;46552;52.150;8.428;2023-04-20T07:23:26;13.47;;;7.87;;
4434;SDS011;46552;52.150;8.428;2023-04-20T07:25:55;11.13;;;6.97;;
4434;SDS011;46552;52.150;8.428;2023-04-20T07:28:22;14.93;;;8.67;;
4434;SDS011;46552;52.150;8.428;2023-04-20T07:30:50;19.13;;;8.60;;
4434;SDS011;46552;52.150;8.428;2023-04-20T07:33:17;16.60;;;8.13;;
4434;SDS011;46552;52.150;8.428;2023-04-20T07:35:45;16.60;;;9.03;;
4434;SDS011;46552;52.150;8.428;2023-04-20T07:38:12;17.13;;;8.57;;
4434;SDS011;46552;52.150;8.428;2023-04-20T07:40:40;19.17;;;8.30;;
4434;SDS011;46552;52.150;8.428;2023-04-20T07:43:09;17.33;;;8.97;;
4434;SDS011;46552;52.150;8.428;2023-04-20T07:45:38;14.60;;;9.13;;
4434;SDS011;46552;52.150;8.428;2023-04-20T07:48:05;18.50;;;9.90;;
4434;SDS011;46552;52.150;8.428;2023-04-20T07:50:33;17.50;;;10.73;;
4434;SDS011;46552;52.150;8.428;2023-04-20T07:53:00;18.13;;;9.97;;
4434;SDS011;46552;52.150;8.428;2023-04-20T07:55:28;16.33;;;10.63;;
4434;SDS011;46552;52.150;8.428;2023-04-20T07:57:55;17.53;;;9.30;;
4434;SDS011;46552;52.150;8.428;2023-04-20T08:00:24;21.03;;;9.00;;
4434;SDS011;46552;52.150;8.428;2023-04-20T08:02:51;26.17;;;10.27;;
4434;SDS011;46552;52.150;8.428;2023-04-20T08:05:18;18.23;;;8.83;;
4434;SDS011;46552;52.150;8.428;2023-04-20T08:07:46;23.73;;;10.90;;
4434;SDS011;46552;52.150;8.428;2023-04-20T08:10:13;17.33;;;8.70;;
4434;SDS011;46552;52.150;8.428;2023-04-20T08:12:40;17.00;;;8.60;;
4434;SDS011;46552;52.150;8.428;2023-04-20T08:15:08;14.83;;;8.60;;
4434;SDS011;46552;52.150;8.428;2023-04-20T08:17:38;17.93;;;9.07;;
4434;SDS011;46552;52.150;8.428;2023-04-20T08:20:06;14.07;;;8.33;;
4434;SDS011;46552;52.150;8.428;2023-04-20T08:22:34;14.53;;;7.67;;
4434;SDS011;46552;52.150;8.428;2023-04-20T08:25:01;14.33;;;8.50;;
4434;SDS011;46552;52.150;8.428;2023-04-20T08:27:28;15.87;;;9.37;;
4434;SDS011;46552;52.150;8.428;2023-04-20T08:29:56;16.97;;;9.30;;
4434;SDS011;46552;52.150;8.428;2023-04-20T08:32:23;13.43;;;8.17;;
4434;SDS011;46552;52.150;8.428;2023-04-20T08:34:54;17.13;;;9.63;;
4434;SDS011;46552;52.150;8.428;2023-04-20T08:37:21;20.40;;;9.77;;
4434;SDS011;46552;52.150;8.428;2023-04-20T08:39:49;21.10;;;9.20;;
4434;SDS011;46552;52.150;8.428;2023-04-20T08:42:16;15.13;;;9.57;;
4434;SDS011;46552;52.150;8.428;2023-04-20T08:44:43;14.60;;;8.57;;
4434;SDS011;46552;52.150;8.428;2023-04-20T08:47:12;13.60;;;8.77;;
4434;SDS011;46552;52.150;8.428;2023-04-20T08:49:39;15.80;;;8.40;;
4434;SDS011;46552;52.150;8.428;2023-04-20T08:52:11;19.60;;;9.10;;
4434;SDS011;46552;52.150;8.428;2023-04-20T08:54:39;14.67;;;8.90;;
4434;SDS011;46552;52.150;8.428;2023-04-20T08:57:06;17.30;;;9.70;;
4434;SDS011;46552;52.150;8.428;2023-04-20T08:59:35;17.93;;;8.77;;
4434;SDS011;46552;52.150;8.428;2023-04-20T09:02:07;15.57;;;9.97;;
4434;SDS011;46552;52.150;8.428;2023-04-20T09:04:36;26.03;;;9.83;;
4434;SDS011;46552;52.150;8.428;2023-04-20T09:07:02;14.87;;;8.73;;
4434;SDS011;46552;52.150;8.428;2023-04-20T09:09:32;14.63;;;9.00;;
4434;SDS011;46552;52.150;8.428;2023-04-20T09:11:59;15.67;;;9.23;;
4434;SDS011;46552;52.150;8.428;2023-04-20T09:14:28;13.80;;;8.70;;
4434;SDS011;46552;52.150;8.428;2023-04-20T09:16:56;15.70;;;9.43;;
4434;SDS011;46552;52.150;8.428;2023-04-20T09:19:26;15.80;;;9.10;;
4434;SDS011;46552;52.150;8.428;2023-04-20T09:21:55;15.53;;;9.00;;
4434;SDS011;46552;52.150;8.428;2023-04-20T09:24:29;12.93;;;9.40;;
4434;SDS011;46552;52.150;8.428;2023-04-20T09:26:58;13.03;;;7.77;;
4434;SDS011;46552;52.150;8.428;2023-04-20T09:29:26;16.53;;;7.03;;
4434;SDS011;46552;52.150;8.428;2023-04-20T09:31:54;10.77;;;7.23;;
4434;SDS011;46552;52.150;8.428;2023-04-20T09:34:21;14.17;;;9.27;;
4434;SDS011;46552;52.150;8.428;2023-04-20T09:36:50;15.10;;;8.10;;
4434;SDS011;46552;52.150;8.428;2023-04-20T09:39:19;10.93;;;7.43;;
4434;SDS011;46552;52.150;8.428;2023-04-20T09:41:47;9.73;;;6.90;;
4434;SDS011;46552;52.150;8.428;2023-04-20T09:44:17;9.60;;;5.87;;
4434;SDS011;46552;52.150;8.428;2023-04-20T09:46:45;9.17;;;6.30;;
4434;SDS011;46552;52.150;8.428;2023-04-20T09:49:13;13.23;;;7.40;;
4434;SDS011;46552;52.150;8.428;2023-04-20T09:51:40;10.83;;;7.00;;
4434;SDS011;46552;52.150;8.428;2023-04-20T09:54:10;9.47;;;6.47;;
4434;SDS011;46552;52.150;8.428;2023-04-20T09:56:39;8.93;;;6.87;;
4434;SDS011;46552;52.150;8.428;2023-04-20T09:59:07;9.20;;;6.20;;
4434;SDS011;46552;52.150;8.428;2023-04-20T10:01:36;8.77;;;6.40;;
4434;SDS011;46552;52.150;8.428;2023-04-20T10:04:05;12.57;;;6.83;;
4434;SDS011;46552;52.150;8.428;2023-04-20T10:06:35;10.90;;;7.40;;
4434;SDS011;46552;52.150;8.428;2023-04-20T10:09:03;10.50;;;6.90;;
4434;SDS011;46552;52.150;8.428;2023-04-20T10:11:32;10.57;;;6.57;;
4434;SDS011;46552;52.150;8.428;2023-04-20T10:14:01;9.83;;;6.57;;
4434;SDS011;46552;52.150;8.428;2023-04-20T10:16:42;10.87;;;6.30;;
4434;SDS011;46552;52.150;8.428;2023-04-20T10:19:10;8.20;;;6.57;;
4434;SDS011;46552;52.150;8.428;2023-04-20T10:21:44;8.57;;;6.57;;
4434;SDS011;46552;52.150;8.428;2023-04-20T10:24:13;10.73;;;6.83;;
4434;SDS011;46552;52.150;8.428;2023-04-20T10:26:41;9.50;;;6.63;;
4434;SDS011;46552;52.150;8.428;2023-04-20T10:29:10;13.03;;;6.67;;
4434;SDS011;46552;52.150;8.428;2023-04-20T10:31:50;11.33;;;6.80;;
4434;SDS011;46552;52.150;8.428;2023-04-20T10:34:28;8.20;;;6.60;;
4434;SDS011;46552;52.150;8.428;2023-04-20T10:37:05;10.57;;;7.53;;
4434;SDS011;46552;52.150;8.428;2023-04-20T10:39:33;9.33;;;7.13;;
4434;SDS011;46552;52.150;8.428;2023-04-20T10:42:02;13.60;;;6.87;;
4434;SDS011;46552;52.150;8.428;2023-04-20T10:44:30;9.93;;;7.13;;
4434;SDS011;46552;52.150;8.428;2023-04-20T10:47:00;9.70;;;6.83;;
4434;SDS011;46552;52.150;8.428;2023-04-20T10:49:28;8.93;;;6.77;;
4434;SDS011;46552;52.150;8.428;2023-04-20T10:51:56;10.93;;;8.13;;
4434;SDS011;46552;52.150;8.428;2023-04-20T10:54:24;10.40;;;7.23;;
4434;SDS011;46552;52.150;8.428;2023-04-20T10:56:53;10.27;;;7.10;;
4434;SDS011;46552;52.150;8.428;2023-04-20T10:59:20;17.57;;;6.80;;
4434;SDS011;46552;52.150;8.428;2023-04-20T11:01:49;9.30;;;7.37;;
4434;SDS011;46552;52.150;8.428;2023-04-20T11:04:27;13.67;;;8.53;;
4434;SDS011;46552;52.150;8.428;2023-04-20T11:07:02;9.87;;;7.40;;
4434;SDS011;46552;52.150;8.428;2023-04-20T11:09:31;15.10;;;8.00;;
4434;SDS011;46552;52.150;8.428;2023-04-20T11:11:59;11.40;;;8.60;;
4434;SDS011;46552;52.150;8.428;2023-04-20T11:14:29;10.47;;;8.10;;
4434;SDS011;46552;52.150;8.428;2023-04-20T11:16:57;10.30;;;8.20;;
4434;SDS011;46552;52.150;8.428;2023-04-20T11:19:28;9.77;;;7.97;;
4434;SDS011;46552;52.150;8.428;2023-04-20T11:21:57;11.87;;;9.40;;
4434;SDS011;46552;52.150;8.428;2023-04-20T11:24:24;10.27;;;9.00;;
4434;SDS011;46552;52.150;8.428;2023-04-20T11:26:53;11.33;;;8.73;;
4434;SDS011;46552;52.150;8.428;2023-04-20T11:29:28;11.33;;;8.23;;
4434;SDS011;46552;52.150;8.428;2023-04-20T11:31:57;10.60;;;7.90;;
4434;SDS011;46552;52.150;8.428;2023-04-20T11:34:25;10.77;;;8.70;;
4434;SDS011;46552;52.150;8.428;2023-04-20T11:36:55;10.20;;;7.20;;
4434;SDS011;46552;52.150;8.428;2023-04-20T11:39:23;8.70;;;7.10;;
4434;SDS011;46552;52.150;8.428;2023-04-20T11:41:51;11.77;;;8.00;;
4434;SDS011;46552;52.150;8.428;2023-04-20T11:44:19;11.60;;;8.67;;
4434;SDS011;46552;52.150;8.428;2023-04-20T11:46:46;14.20;;;9.03;;
4434;SDS011;46552;52.150;8.428;2023-04-20T11:49:14;18.10;;;9.67;;
4434;SDS011;46552;52.150;8.428;2023-04-20T11:51:43;13.60;;;7.87;;
4434;SDS011;46552;52.150;8.428;2023-04-20T11:54:11;10.10;;;7.80;;
4434;SDS011;46552;52.150;8.428;2023-04-20T11:56:38;11.63;;;7.00;;
4434;SDS011;46552;52.150;8.428;2023-04-20T11:59:06;9.90;;;7.67;;
4434;SDS011;46552;52.150;8.428;2023-04-20T12:01:33;8.90;;;6.80;;
4434;SDS011;46552;52.150;8.428;2023-04-20T12:04:01;9.40;;;6.50;;
4434;SDS011;46552;52.150;8.428;2023-04-20T12:06:28;9.67;;;7.00;;
4434;SDS011;46552;52.150;8.428;2023-04-20T12:08:57;11.47;;;8.10;;
4434;SDS011;46552;52.150;8.428;2023-04-20T12:11:26;11.20;;;8.07;;
4434;SDS011;46552;52.150;8.428;2023-04-20T12:13:54;8.73;;;6.37;;
4434;SDS011;46552;52.150;8.428;2023-04-20T12:16:22;9.90;;;6.97;;
4434;SDS011;46552;52.150;8.428;2023-04-20T12:18:49;7.90;;;6.50;;
4434;SDS011;46552;52.150;8.428;2023-04-20T12:21:17;7.80;;;6.40;;
4434;SDS011;46552;52.150;8.428;2023-04-20T12:23:44;12.23;;;5.70;;
4434;SDS011;46552;52.150;8.428;2023-04-20T12:26:15;8.17;;;5.80;;
4434;SDS011;46552;52.150;8.428;2023-04-20T12:28:42;10.47;;;6.83;;
4434;SDS011;46552;52.150;8.428;2023-04-20T12:31:10;8.30;;;6.70;;
4434;SDS011;46552;52.150;8.428;2023-04-20T12:33:37;10.53;;;7.83;;
4434;SDS011;46552;52.150;8.428;2023-04-20T12:36:05;11.10;;;8.07;;
4434;SDS011;46552;52.150;8.428;2023-04-20T12:38:32;15.10;;;8.20;;
4434;SDS011;46552;52.150;8.428;2023-04-20T12:41:00;13.63;;;8.33;;
4434;SDS011;46552;52.150;8.428;2023-04-20T12:43:29;12.30;;;8.57;;
4434;SDS011;46552;52.150;8.428;2023-04-20T12:45:56;15.73;;;7.90;;
4434;SDS011;46552;52.150;8.428;2023-04-20T12:48:23;10.70;;;8.70;;
4434;SDS011;46552;52.150;8.428;2023-04-20T12:50:52;12.37;;;9.50;;
4434;SDS011;46552;52.150;8.428;2023-04-20T12:53:19;14.60;;;10.40;;
4434;SDS011;46552;52.150;8.428;2023-04-20T12:55:46;13.50;;;9.63;;
4434;SDS011;46552;52.150;8.428;2023-04-20T12:58:14;16.47;;;9.60;;
4434;SDS011;46552;52.150;8.428;2023-04-20T13:00:43;13.70;;;9.03;;
4434;SDS011;46552;52.150;8.428;2023-04-20T13:03:11;11.13;;;9.20;;
4434;SDS011;46552;52.150;8.428;2023-04-20T13:05:38;16.10;;;9.20;;
4434;SDS011;46552;52.150;8.428;2023-04-20T13:08:05;16.67;;;9.30;;
4434;SDS011;46552;52.150;8.428;2023-04-20T13:10:32;18.07;;;7.97;;
4434;SDS011;46552;52.150;8.428;2023-04-20T13:13:01;16.03;;;9.70;;
4434;SDS011;46552;52.150;8.428;2023-04-20T13:15:28;16.27;;;8.50;;
4434;SDS011;46552;52.150;8.428;2023-04-20T13:17:57;10.77;;;9.23;;
4434;SDS011;46552;52.150;8.428;2023-04-20T13:20:25;11.40;;;8.90;;
4434;SDS011;46552;52.150;8.428;2023-04-20T13:22:54;10.90;;;8.93;;
4434;SDS011;46552;52.150;8.428;2023-04-20T13:25:22;11.00;;;8.60;;
4434;SDS011;46552;52.150;8.428;2023-04-20T13:27:50;10.17;;;8.00;;
4434;SDS011;46552;52.150;8.428;2023-04-20T13:30:18;11.00;;;7.90;;
4434;SDS011;46552;52.150;8.428;2023-04-20T13:32:45;11.67;;;9.20;;
4434;SDS011;46552;52.150;8.428;2023-04-20T13:35:14;10.87;;;8.93;;
4434;SDS011;46552;52.150;8.428;2023-04-20T13:37:43;9.80;;;8.27;;
4434;SDS011;46552;52.150;8.428;2023-04-20T13:40:11;14.27;;;8.13;;
4434;SDS011;46552;52.150;8.428;2023-04-20T13:42:39;9.80;;;7.27;;
4434;SDS011;46552;52.150;8.428;2023-04-20T13:45:07;9.27;;;7.13;;
4434;SDS011;46552;52.150;8.428;2023-04-20T13:47:35;12.73;;;8.70;;
4434;SDS011;46552;52.150;8.428;2023-04-20T13:50:03;16.70;;;8.00;;
4434;SDS011;46552;52.150;8.428;2023-04-20T13:52:33;9.70;;;6.90;;
4434;SDS011;46552;52.150;8.428;2023-04-20T13:55:00;10.40;;;7.63;;
4434;SDS011;46552;52.150;8.428;2023-04-20T13:57:27;10.60;;;7.53;;
4434;SDS011;46552;52.150;8.428;2023-04-20T13:59:55;7.93;;;6.83;;
4434;SDS011;46552;52.150;8.428;2023-04-20T14:02:23;10.90;;;8.53;;
4434;SDS011;46552;52.150;8.428;2023-04-20T14:04:51;12.37;;;8.97;;
4434;SDS011;46552;52.150;8.428;2023-04-20T14:07:18;9.57;;;7.47;;
4434;SDS011;46552;52.150;8.428;2023-04-20T14:09:47;12.40;;;9.27;;
4434;SDS011;46552;52.150;8.428;2023-04-20T14:12:15;11.23;;;8.57;;
4434;SDS011;46552;52.150;8.428;2023-04-20T14:14:42;10.50;;;8.40;;
4434;SDS011;46552;52.150;8.428;2023-04-20T14:17:09;12.50;;;8.80;;
4434;SDS011;46552;52.150;8.428;2023-04-20T14:19:36;12.43;;;8.90;;
4434;SDS011;46552;52.150;8.428;2023-04-20T14:22:03;8.50;;;7.60;;
4434;SDS011;46552;52.150;8.428;2023-04-20T14:24:30;10.73;;;8.50;;
4434;SDS011;46552;52.150;8.428;2023-04-20T14:26:59;10.67;;;7.40;;
4434;SDS011;46552;52.150;8.428;2023-04-20T14:29:27;11.00;;;8.53;;
4434;SDS011;46552;52.150;8.428;2023-04-20T14:31:54;10.97;;;8.20;;
4434;SDS011;46552;52.150;8.428;2023-04-20T14:34:21;8.93;;;7.10;;
4434;SDS011;46552;52.150;8.428;2023-04-20T14:36:48;10.13;;;7.60;;
4434;SDS011;46552;52.150;8.428;2023-04-20T14:39:17;11.17;;;7.80;;
4434;SDS011;46552;52.150;8.428;2023-04-20T14:41:44;9.93;;;6.40;;
4434;SDS011;46552;52.150;8.428;2023-04-20T14:44:14;7.00;;;5.60;;
4434;SDS011;46552;52.150;8.428;2023-04-20T14:46:41;10.43;;;6.50;;
4434;SDS011;46552;52.150;8.428;2023-04-20T14:49:08;12.00;;;7.30;;
4434;SDS011;46552;52.150;8.428;2023-04-20T14:51:36;6.20;;;5.60;;
4434;SDS011;46552;52.150;8.428;2023-04-20T14:54:03;11.10;;;8.00;;
4434;SDS011;46552;52.150;8.428;2023-04-20T14:56:30;12.63;;;7.37;;